createdAt,value
2022-11-02T00:00:31.538Z,11.46
2022-11-02T00:03:19.086Z,11.47
2022-11-02T00:05:46.995Z,11.49
2022-11-02T00:08:14.636Z,11.52
2022-11-02T00:10:42.406Z,11.55
2022-11-02T00:13:10.276Z,11.57
2022-11-02T00:15:41.519Z,11.60
2022-11-02T00:18:14.292Z,11.62
2022-11-02T00:20:46.031Z,11.66
2022-11-02T00:23:16.636Z,11.69
2022-11-02T00:25:52.129Z,11.72
2022-11-02T00:28:23.788Z,11.74
2022-11-02T00:30:55.032Z,11.76
2022-11-02T00:33:22.749Z,11.79
2022-11-02T00:35:54.573Z,11.82
2022-11-02T00:38:22.224Z,11.85
2022-11-02T00:40:50.402Z,11.86
2022-11-02T00:43:18.240Z,11.87
2022-11-02T00:45:45.981Z,11.89
2022-11-02T00:48:13.630Z,11.90
2022-11-02T00:50:45.044Z,11.93
2022-11-02T00:53:12.778Z,11.95
2022-11-02T00:55:47.656Z,11.98
2022-11-02T00:58:15.536Z,11.99
2022-11-02T01:00:43.414Z,12.02
2022-11-02T01:03:11.221Z,12.02
2022-11-02T01:05:39.072Z,12.04
2022-11-02T01:08:08.940Z,12.04
2022-11-02T01:10:36.729Z,12.05
2022-11-02T01:13:12.615Z,12.07
2022-11-02T01:15:40.472Z,12.08
2022-11-02T01:18:08.399Z,12.09
2022-11-02T01:20:36.350Z,12.09
2022-11-02T01:23:03.967Z,12.09
2022-11-02T01:25:31.600Z,12.10
2022-11-02T01:28:03.247Z,12.10
2022-11-02T01:30:32.886Z,12.11
2022-11-02T01:33:06.905Z,12.12
2022-11-02T01:35:37.316Z,12.12
2022-11-02T01:38:05.223Z,12.12
2022-11-02T01:40:42.387Z,12.14
2022-11-02T01:43:27.854Z,12.13
2022-11-02T01:46:05.517Z,12.12
2022-11-02T01:48:45.214Z,12.13
2022-11-02T01:51:33.576Z,12.13
2022-11-02T01:54:10.100Z,12.14
2022-11-02T01:56:41.980Z,12.15
2022-11-02T01:59:19.340Z,12.16
2022-11-02T02:01:51.194Z,12.18
2022-11-02T02:04:23.330Z,12.18
2022-11-02T02:06:54.913Z,12.19
2022-11-02T02:09:26.817Z,12.21
2022-11-02T02:11:54.634Z,12.22
2022-11-02T02:14:22.324Z,12.23
2022-11-02T02:17:23.994Z,12.25
2022-11-02T02:20:11.421Z,12.25
2022-11-02T02:23:12.261Z,12.26
2022-11-02T02:26:12.375Z,12.25
2022-11-02T02:28:55.912Z,12.24
2022-11-02T02:31:38.279Z,12.25
2022-11-02T02:34:33.916Z,12.22
2022-11-02T02:37:10.890Z,12.19
2022-11-02T02:40:05.799Z,12.19
2022-11-02T02:42:58.054Z,12.18
2022-11-02T02:45:48.565Z,12.17
2022-11-02T02:48:23.893Z,12.15
2022-11-02T02:51:05.378Z,12.13
2022-11-02T02:53:56.182Z,12.12
2022-11-02T02:56:29.709Z,12.12
2022-11-02T02:59:05.737Z,12.12
2022-11-02T03:01:39.888Z,12.11
2022-11-02T03:04:13.378Z,12.11
2022-11-02T03:06:42.737Z,12.11
2022-11-02T03:09:29.295Z,12.10
2022-11-02T03:12:22.991Z,12.12
2022-11-02T03:15:11.889Z,12.14
2022-11-02T03:18:01.619Z,12.15
2022-11-02T03:20:38.436Z,12.17
2022-11-02T03:23:22.845Z,12.19
2022-11-02T03:26:08.033Z,12.21
2022-11-02T03:29:28.276Z,12.23
2022-11-02T03:32:10.782Z,12.21
2022-11-02T03:34:48.332Z,12.22
2022-11-02T03:37:43.369Z,12.23
2022-11-02T03:40:20.236Z,12.24
2022-11-02T03:42:53.622Z,12.26
2022-11-02T03:45:33.545Z,12.28
2022-11-02T03:48:07.432Z,12.30
2022-11-02T03:50:43.789Z,12.32
2022-11-02T03:53:33.183Z,12.35
2022-11-02T03:56:09.594Z,12.37
2022-11-02T03:58:37.543Z,12.38
2022-11-02T04:01:11.297Z,12.40
2022-11-02T04:03:45.008Z,12.42
2022-11-02T04:06:16.867Z,12.44
2022-11-02T04:08:49.818Z,12.44
2022-11-02T04:11:35.974Z,12.45
2022-11-02T04:14:26.307Z,12.45
2022-11-02T04:17:13.919Z,12.46
2022-11-02T04:19:45.439Z,12.47
2022-11-02T04:22:38.763Z,12.48
2022-11-02T04:25:18.708Z,12.48
2022-11-02T04:27:54.140Z,12.49
2022-11-02T04:30:23.903Z,12.48
2022-11-02T04:33:10.351Z,12.48
2022-11-02T04:35:38.148Z,12.47
2022-11-02T04:38:24.492Z,12.46
2022-11-02T04:41:12.081Z,12.45
2022-11-02T04:43:39.767Z,12.44
2022-11-02T04:46:07.437Z,12.43
2022-11-02T04:48:35.320Z,12.43
2022-11-02T04:51:03.236Z,12.43
2022-11-02T04:53:31.372Z,12.41
2022-11-02T04:55:59.191Z,12.40
2022-11-02T04:58:27.075Z,12.37
2022-11-02T05:00:55.008Z,12.33
2022-11-02T05:03:23.362Z,12.33
2022-11-02T05:05:56.302Z,12.31
2022-11-02T05:08:24.233Z,12.30
2022-11-02T05:11:00.161Z,12.30
2022-11-02T05:13:29.256Z,12.28
2022-11-02T05:16:00.410Z,12.25
2022-11-02T05:18:30.517Z,12.25
2022-11-02T05:21:00.849Z,12.24
2022-11-02T05:23:30.916Z,12.23
2022-11-02T05:26:04.024Z,12.22
2022-11-02T05:28:35.588Z,12.20
2022-11-02T05:31:07.227Z,12.19
2022-11-02T05:33:38.823Z,12.17
2022-11-02T05:36:06.655Z,12.16
2022-11-02T05:38:40.766Z,12.15
2022-11-02T05:41:11.315Z,12.16
2022-11-02T05:43:41.084Z,12.17
2022-11-02T05:46:08.769Z,12.17
2022-11-02T05:48:36.690Z,12.16
2022-11-02T05:51:07.492Z,12.16
2022-11-02T05:53:38.734Z,12.17
2022-11-02T05:56:11.256Z,12.18
2022-11-02T05:58:38.945Z,12.20
2022-11-02T06:01:14.229Z,12.21
2022-11-02T06:03:42.006Z,12.22
2022-11-02T06:06:14.038Z,12.21
2022-11-02T06:08:44.188Z,12.21
2022-11-02T06:11:17.664Z,12.21
2022-11-02T06:13:51.460Z,12.21
2022-11-02T06:16:23.102Z,12.22
2022-11-02T06:18:51.872Z,12.20
2022-11-02T06:21:19.693Z,12.19
2022-11-02T06:23:51.533Z,12.20
2022-11-02T06:26:19.522Z,12.20
2022-11-02T06:28:47.447Z,12.21
2022-11-02T06:31:18.033Z,12.24
2022-11-02T06:33:49.342Z,12.23
2022-11-02T06:36:17.103Z,12.25
2022-11-02T06:38:49.634Z,12.24
2022-11-02T06:41:17.658Z,12.23
2022-11-02T06:43:45.531Z,12.20
2022-11-02T06:46:18.709Z,12.19
2022-11-02T06:48:49.077Z,12.22
2022-11-02T06:51:17.000Z,12.25
2022-11-02T06:53:44.904Z,12.29
2022-11-02T06:56:15.543Z,12.32
2022-11-02T06:58:46.845Z,12.35
2022-11-02T07:01:19.175Z,12.40
2022-11-02T07:03:46.952Z,12.43
2022-11-02T07:06:14.860Z,12.47
2022-11-02T07:08:43.330Z,12.50
2022-11-02T07:11:17.339Z,12.53
2022-11-02T07:13:45.368Z,12.57
2022-11-02T07:16:13.736Z,12.60
2022-11-02T07:18:42.074Z,12.63
2022-11-02T07:21:13.871Z,12.66
2022-11-02T07:23:41.786Z,12.68
2022-11-02T07:26:11.877Z,12.68
2022-11-02T07:28:39.749Z,12.70
2022-11-02T07:31:10.977Z,12.73
2022-11-02T07:33:38.652Z,12.77
2022-11-02T07:36:09.493Z,12.76
2022-11-02T07:38:37.371Z,12.76
2022-11-02T07:41:06.955Z,12.79
2022-11-02T07:43:35.334Z,12.83
2022-11-02T07:46:11.427Z,12.88
2022-11-02T07:48:39.267Z,12.91
2022-11-02T07:51:09.963Z,12.94
2022-11-02T07:53:41.438Z,12.98
2022-11-02T07:56:09.219Z,12.99
2022-11-02T07:58:40.589Z,13.04
2022-11-02T08:01:11.850Z,13.08
2022-11-02T08:03:39.849Z,13.11
2022-11-02T08:06:11.049Z,13.17
2022-11-02T08:08:38.937Z,13.24
2022-11-02T08:11:26.564Z,13.26
2022-11-02T08:13:54.415Z,13.32
2022-11-02T08:16:22.374Z,13.37
2022-11-02T08:19:01.751Z,13.43
2022-11-02T08:21:29.811Z,13.47
2022-11-02T08:23:58.668Z,13.51
2022-11-02T08:26:28.924Z,13.56
2022-11-02T08:28:56.686Z,13.62
2022-11-02T08:31:24.677Z,13.72
2022-11-02T08:33:57.699Z,13.88
2022-11-02T08:36:25.729Z,14.06
2022-11-02T08:38:57.566Z,14.21
2022-11-02T08:41:25.368Z,14.40
2022-11-02T08:43:53.309Z,14.63
2022-11-02T08:46:21.091Z,14.84
2022-11-02T08:48:52.734Z,15.01
2022-11-02T08:51:24.141Z,15.09
2022-11-02T08:53:52.206Z,15.14
2022-11-02T08:56:23.151Z,15.20
2022-11-02T08:58:51.085Z,15.42
2022-11-02T09:01:18.874Z,15.45
2022-11-02T09:03:48.432Z,15.40
2022-11-02T09:06:16.216Z,15.37
2022-11-02T09:08:44.192Z,15.69
2022-11-02T09:11:14.121Z,16.09
2022-11-02T09:13:43.259Z,16.53
2022-11-02T09:16:11.423Z,16.92
2022-11-02T09:18:39.269Z,16.98
2022-11-02T09:21:07.200Z,16.79
2022-11-02T09:23:35.014Z,16.55
2022-11-02T09:26:03.932Z,16.40
2022-11-02T09:28:31.681Z,16.35
2022-11-02T09:30:59.430Z,16.33
2022-11-02T09:33:32.334Z,16.50
2022-11-02T09:36:07.849Z,16.63
2022-11-02T09:38:35.837Z,16.78
2022-11-02T09:41:22.774Z,16.97
2022-11-02T09:44:10.996Z,17.13
2022-11-02T09:46:44.874Z,17.31
2022-11-02T09:49:20.134Z,17.56
2022-11-02T09:51:55.084Z,17.74
2022-11-02T09:54:39.219Z,17.84
2022-11-02T09:57:17.034Z,17.74
2022-11-02T09:59:44.887Z,17.66
2022-11-02T10:02:27.317Z,17.62
2022-11-02T10:05:13.535Z,17.53
2022-11-02T10:08:06.327Z,17.51
2022-11-02T10:10:37.314Z,17.55
2022-11-02T10:13:17.648Z,17.59
2022-11-02T10:15:55.236Z,17.63
2022-11-02T10:18:31.133Z,17.63
2022-11-02T10:21:05.900Z,17.53
2022-11-02T10:23:48.608Z,17.45
2022-11-02T10:26:23.780Z,17.40
2022-11-02T10:29:03.282Z,17.41
2022-11-02T10:31:35.350Z,17.44
2022-11-02T10:34:26.213Z,17.51
2022-11-02T10:37:03.056Z,17.58
2022-11-02T10:40:00.593Z,17.68
2022-11-02T10:42:40.294Z,17.77
2022-11-02T10:45:34.351Z,17.89
2022-11-02T10:48:36.380Z,17.99
2022-11-02T10:51:12.797Z,18.04
2022-11-02T10:53:49.324Z,18.06
2022-11-02T10:56:35.922Z,18.04
2022-11-02T10:59:20.266Z,18.07
2022-11-02T11:02:10.929Z,18.16
2022-11-02T11:04:38.885Z,18.26
2022-11-02T11:07:19.407Z,18.31
2022-11-02T11:09:57.171Z,18.34
2022-11-02T11:12:41.136Z,18.32
2022-11-02T11:21:10.692Z,18.14
2022-11-02T11:23:38.792Z,18.01
2022-11-02T11:26:31.009Z,17.87
2022-11-02T11:29:03.165Z,17.77
2022-11-02T11:31:31.090Z,17.69
2022-11-02T11:34:02.710Z,17.70
2022-11-02T11:36:39.987Z,17.76
2022-11-02T11:39:26.252Z,17.83
2022-11-02T11:41:54.228Z,17.77
2022-11-02T11:44:26.346Z,17.64
2022-11-02T11:47:00.101Z,17.52
2022-11-02T11:50:03.115Z,17.39
2022-11-02T11:52:32.452Z,17.24
2022-11-02T11:55:32.447Z,17.14
2022-11-02T11:58:19.094Z,17.05
2022-11-02T12:01:20.231Z,16.91
2022-11-02T12:03:55.737Z,16.78
2022-11-02T12:06:51.646Z,16.77
2022-11-02T12:09:48.228Z,16.90
2022-11-02T12:12:49.412Z,17.07
2022-11-02T12:15:23.445Z,17.16
2022-11-02T12:18:29.475Z,17.12
2022-11-02T12:21:25.376Z,17.11
2022-11-02T12:24:33.718Z,17.20
2022-11-02T12:27:30.891Z,17.35
2022-11-02T12:30:14.577Z,17.41
2022-11-02T12:32:51.261Z,17.29
2022-11-02T12:35:31.014Z,17.09
2022-11-02T12:38:17.071Z,16.98
2022-11-02T12:40:44.978Z,16.85
2022-11-02T12:43:42.207Z,16.75
2022-11-02T12:46:50.462Z,16.82
2022-11-02T12:49:27.988Z,16.89
2022-11-02T12:52:16.832Z,16.96
2022-11-02T12:54:56.879Z,17.04
2022-11-02T12:57:39.366Z,17.10
2022-11-02T13:00:29.484Z,17.10
2022-11-02T13:02:59.992Z,17.18
2022-11-02T13:05:44.051Z,17.24
2022-11-02T13:08:11.988Z,17.30
2022-11-02T13:10:53.547Z,17.33
2022-11-02T13:13:45.844Z,17.33
2022-11-02T13:16:20.758Z,17.38
2022-11-02T13:18:55.157Z,17.45
2022-11-02T13:21:39.829Z,17.44
2022-11-02T13:24:25.122Z,17.37
2022-11-02T13:30:01.829Z,17.38
2022-11-02T13:32:46.065Z,17.39
2022-11-02T13:35:16.896Z,17.41
2022-11-02T13:37:55.888Z,17.42
2022-11-02T13:40:45.506Z,17.48
2022-11-02T13:43:38.506Z,17.53
2022-11-02T13:46:23.813Z,17.58
2022-11-02T13:49:14.448Z,17.59
2022-11-02T13:52:15.342Z,17.56
2022-11-02T13:54:55.962Z,17.50
2022-11-02T13:57:42.017Z,17.47
2022-11-02T14:00:25.504Z,17.48
2022-11-02T14:03:06.943Z,17.41
2022-11-02T14:05:45.976Z,17.31
2022-11-02T14:08:57.599Z,17.29
2022-11-02T14:11:40.928Z,17.27
2022-11-02T14:14:11.834Z,17.22
2022-11-02T14:16:47.350Z,17.18
2022-11-02T14:19:20.427Z,17.12
2022-11-02T14:21:49.311Z,17.04
2022-11-02T14:24:32.395Z,16.96
2022-11-02T14:27:12.603Z,16.89
2022-11-02T14:29:46.708Z,16.85
2022-11-02T14:32:17.662Z,16.78
2022-11-02T14:35:23.723Z,16.74
2022-11-02T14:38:13.755Z,16.64
2022-11-02T14:40:56.841Z,16.53
2022-11-02T14:44:00.870Z,16.42
2022-11-02T14:46:59.044Z,16.32
2022-11-02T14:49:39.886Z,16.17
2022-11-02T14:52:28.678Z,16.02
2022-11-02T14:55:19.879Z,15.91
2022-11-02T14:57:55.746Z,15.84
2022-11-02T15:00:38.547Z,15.77
2022-11-02T15:03:29.563Z,15.68
2022-11-02T15:06:11.803Z,15.57
2022-11-02T15:08:42.493Z,15.48
2022-11-02T15:11:45.695Z,15.41
2022-11-02T15:14:35.491Z,15.34
2022-11-02T15:17:15.256Z,15.28
2022-11-02T15:19:53.737Z,15.24
2022-11-02T15:22:57.357Z,15.21
2022-11-02T15:25:37.143Z,15.14
2022-11-02T15:28:14.507Z,15.09
2022-11-02T15:30:50.154Z,15.04
2022-11-02T15:33:36.170Z,14.98
2022-11-02T15:36:08.857Z,14.93
2022-11-02T15:38:40.679Z,14.86
2022-11-02T15:41:17.662Z,14.81
2022-11-02T15:44:02.567Z,14.74
2022-11-02T15:46:48.818Z,14.68
2022-11-02T15:49:43.484Z,14.60
2022-11-02T15:52:26.743Z,14.50
2022-11-02T15:55:18.085Z,14.39
2022-11-02T15:58:21.944Z,14.33
2022-11-02T16:01:21.719Z,14.23
2022-11-02T16:04:04.102Z,14.15
2022-11-02T16:06:44.137Z,14.10
2022-11-02T16:09:38.197Z,14.05
2022-11-02T16:12:25.926Z,13.98
2022-11-02T16:15:12.555Z,13.87
2022-11-02T16:17:52.437Z,13.84
2022-11-02T16:20:27.299Z,13.79
2022-11-02T16:23:04.393Z,13.75
2022-11-02T16:25:45.045Z,13.71
2022-11-02T16:28:21.110Z,13.66
2022-11-02T16:31:19.409Z,13.63
2022-11-02T16:33:56.927Z,13.60
2022-11-02T16:36:33.848Z,13.56
2022-11-02T16:39:07.135Z,13.52
2022-11-02T16:41:39.548Z,13.48
2022-11-02T16:44:26.992Z,13.44
2022-11-02T16:47:19.473Z,13.39
2022-11-02T16:49:51.001Z,13.33
2022-11-02T16:52:32.259Z,13.29
2022-11-02T16:55:00.997Z,13.24
2022-11-02T16:57:43.324Z,13.21
2022-11-02T17:00:20.640Z,13.16
2022-11-02T17:02:48.777Z,13.11
2022-11-02T17:05:20.542Z,13.04
2022-11-02T17:07:59.261Z,13.00
2022-11-02T17:10:29.417Z,12.93
2022-11-02T17:12:58.377Z,12.88
2022-11-02T17:15:32.428Z,12.82
2022-11-02T17:18:14.634Z,12.76
2022-11-02T17:20:42.658Z,12.72
2022-11-02T17:23:31.447Z,12.67
2022-11-02T17:26:14.851Z,12.62
2022-11-02T17:28:46.003Z,12.56
2022-11-02T17:31:44.165Z,12.52
2022-11-02T17:34:19.308Z,12.46
2022-11-02T17:36:49.338Z,12.42
2022-11-02T17:39:19.523Z,12.40
2022-11-02T17:42:12.703Z,12.38
2022-11-02T17:44:41.629Z,12.35
2022-11-02T17:47:12.491Z,12.32
2022-11-02T17:49:40.497Z,12.30
2022-11-02T17:52:12.768Z,12.28
2022-11-02T17:54:40.527Z,12.24
2022-11-02T17:57:13.439Z,12.20
2022-11-02T17:59:41.210Z,12.16
2022-11-02T18:02:13.095Z,12.13
2022-11-02T18:04:41.206Z,12.11
2022-11-02T18:07:09.481Z,12.09
2022-11-02T18:09:37.244Z,12.07
2022-11-02T18:12:05.418Z,12.06
2022-11-02T18:14:33.287Z,12.04
2022-11-02T18:17:01.150Z,12.01
2022-11-02T18:19:32.634Z,11.99
2022-11-02T18:22:01.528Z,11.96
2022-11-02T18:24:29.358Z,11.94
2022-11-02T18:26:57.430Z,11.90
2022-11-02T18:29:25.398Z,11.89
2022-11-02T18:31:53.164Z,11.87
2022-11-02T18:34:21.846Z,11.86
2022-11-02T18:36:49.712Z,11.86
2022-11-02T18:39:17.712Z,11.85
2022-11-02T18:41:45.648Z,11.83
2022-11-02T18:44:15.620Z,11.82
2022-11-02T18:46:43.737Z,11.80
2022-11-02T18:49:11.499Z,11.79
2022-11-02T18:51:43.270Z,11.79
2022-11-02T18:54:12.079Z,11.77
2022-11-02T18:56:39.907Z,11.76
2022-11-02T18:59:07.756Z,11.76
2022-11-02T19:01:36.237Z,11.76
2022-11-02T19:04:04.225Z,11.75
2022-11-02T19:06:51.751Z,11.74
2022-11-02T19:09:21.586Z,11.72
2022-11-02T19:12:04.780Z,11.70
2022-11-02T19:14:42.182Z,11.69
2022-11-02T19:17:11.616Z,11.66
2022-11-02T19:19:45.346Z,11.64
2022-11-02T19:22:13.460Z,11.60
2022-11-02T19:24:41.290Z,11.56
2022-11-02T19:27:21.276Z,11.53
2022-11-02T19:29:49.254Z,11.50
2022-11-02T19:32:17.867Z,11.49
2022-11-02T19:34:45.691Z,11.48
2022-11-02T19:37:13.590Z,11.47
2022-11-02T19:39:41.512Z,11.47
2022-11-02T19:42:09.216Z,11.45
2022-11-02T19:44:42.271Z,11.45
2022-11-02T19:47:10.871Z,11.44
2022-11-02T19:49:38.723Z,11.44
2022-11-02T19:52:06.896Z,11.43
2022-11-02T19:54:34.618Z,11.41
2022-11-02T19:57:02.425Z,11.42
2022-11-02T19:59:30.705Z,11.43
2022-11-02T20:01:58.463Z,11.42
2022-11-02T20:04:26.500Z,11.43
2022-11-02T20:06:54.356Z,11.44
2022-11-02T20:09:22.205Z,11.44
2022-11-02T20:11:50.000Z,11.46
2022-11-02T20:14:18.004Z,11.49
2022-11-02T20:16:58.207Z,11.53
2022-11-02T20:19:26.841Z,11.56
2022-11-02T20:21:54.789Z,11.60
2022-11-02T20:24:22.571Z,11.63
2022-11-02T20:26:50.457Z,11.65
2022-11-02T20:29:18.455Z,11.68
2022-11-02T20:31:46.580Z,11.70
2022-11-02T20:34:14.788Z,11.71
2022-11-02T20:36:45.460Z,11.72
2022-11-02T20:39:13.658Z,11.73
2022-11-02T20:41:41.380Z,11.73
2022-11-02T20:44:10.718Z,11.73
2022-11-02T20:46:41.857Z,11.72
2022-11-02T20:51:58.140Z,11.70
2022-11-02T20:54:29.889Z,11.69
2022-11-02T20:56:57.906Z,11.67
2022-11-02T20:59:26.082Z,11.66
2022-11-02T21:01:54.281Z,11.65
2022-11-02T21:04:22.428Z,11.64
2022-11-02T21:06:50.534Z,11.63
2022-11-02T21:09:19.258Z,11.60
2022-11-02T21:12:05.848Z,11.57
2022-11-02T21:14:33.863Z,11.55
2022-11-02T21:17:02.956Z,11.53
2022-11-02T21:19:30.880Z,11.51
2022-11-02T21:22:00.397Z,11.50
2022-11-02T21:24:30.308Z,11.49
2022-11-02T21:26:58.253Z,11.50
2022-11-02T21:29:26.072Z,11.49
2022-11-02T21:31:53.941Z,11.49
2022-11-02T21:34:21.644Z,11.50
2022-11-02T21:36:49.510Z,11.49
2022-11-02T21:39:17.434Z,11.52
2022-11-02T21:41:45.506Z,11.52
2022-11-02T21:44:13.226Z,11.52
2022-11-02T21:46:41.356Z,11.52
2022-11-02T21:49:09.221Z,11.54
2022-11-02T21:51:38.766Z,11.55
2022-11-02T21:54:06.685Z,11.56
2022-11-02T21:56:36.107Z,11.56
2022-11-02T21:59:05.539Z,11.55
2022-11-02T22:01:48.558Z,11.55
2022-11-02T22:04:23.744Z,11.54
2022-11-02T22:06:52.437Z,11.54
2022-11-02T22:09:21.105Z,11.52
2022-11-02T22:12:09.158Z,11.49
2022-11-02T22:14:37.571Z,11.47
2022-11-02T22:17:16.661Z,11.44
2022-11-02T22:19:54.051Z,11.42
2022-11-02T22:22:21.922Z,11.40
2022-11-02T22:24:49.660Z,11.38
2022-11-02T22:27:17.548Z,11.35
2022-11-02T22:29:45.417Z,11.32
2022-11-02T22:32:14.712Z,11.29
2022-11-02T22:34:43.912Z,11.26
2022-11-02T22:37:31.949Z,11.23
2022-11-02T22:39:59.712Z,11.20
2022-11-02T22:42:27.681Z,11.17
2022-11-02T22:44:58.625Z,11.16
2022-11-02T22:47:26.542Z,11.14
2022-11-02T22:49:54.354Z,11.12
2022-11-02T22:52:22.114Z,11.11
2022-11-02T22:54:49.983Z,11.10
2022-11-02T22:57:17.747Z,11.07
2022-11-02T22:59:45.473Z,11.04
2022-11-02T23:02:13.288Z,11.01
2022-11-02T23:04:41.449Z,10.99
2022-11-02T23:07:10.868Z,10.96
2022-11-02T23:09:38.714Z,10.94
2022-11-02T23:12:08.936Z,10.91
2022-11-02T23:14:36.705Z,10.89
2022-11-02T23:17:04.873Z,10.87
2022-11-02T23:19:33.185Z,10.85
2022-11-02T23:22:20.726Z,10.83
2022-11-02T23:25:07.178Z,10.83
2022-11-02T23:28:14.834Z,10.85
2022-11-02T23:31:02.814Z,10.85
2022-11-02T23:33:34.032Z,10.85
2022-11-02T23:36:12.849Z,10.84
2022-11-02T23:39:04.491Z,10.83
2022-11-02T23:41:34.275Z,10.81
2022-11-02T23:44:14.611Z,10.81
2022-11-02T23:46:48.773Z,10.80
2022-11-02T23:49:18.133Z,10.78
2022-11-02T23:52:04.908Z,10.76
2022-11-02T23:54:51.245Z,10.74
2022-11-02T23:57:20.395Z,10.71
2022-11-02T23:59:48.670Z,10.70
